Time;durP1;ratioP1;P1;durP2;ratioP2;P2;SDS_P1;SDS_P2;PMS_P1;PMS_P2;Temp;Humidity;BMP_temperature;BMP_pressure;BME280_temperature;BME280_humidity;BME280_pressure;Samples;Min_cycle;Max_cycle;Signal;HPM_P1;HPM_P2
2022/05/02 00:00:08;;;;;;;7.75;6.53;;;6.60;99.90;;;;;;5046343;28;20056;-75
2022/05/02 00:02:35;;;;;;;8.32;6.38;;;6.50;99.90;;;;;;5045373;28;20052;-77
2022/05/02 00:05:01;;;;;;;8.82;5.93;;;6.50;99.90;;;;;;5061587;28;20044;-76
2022/05/02 00:07:27;;;;;;;9.65;6.93;;;6.50;99.90;;;;;;5080362;28;20098;-75
2022/05/02 00:09:53;;;;;;;7.70;6.63;;;6.50;99.90;;;;;;5047197;28;20056;-76
2022/05/02 00:12:18;;;;;;;7.30;5.90;;;6.80;99.90;;;;;;5062771;28;20056;-76
2022/05/02 00:14:44;;;;;;;6.97;6.03;;;6.40;99.90;;;;;;5063634;28;20544;-75
2022/05/02 00:17:10;;;;;;;7.57;6.30;;;6.40;99.90;;;;;;5046840;28;20132;-75
2022/05/02 00:19:35;;;;;;;8.10;6.47;;;6.40;99.90;;;;;;5046714;28;20057;-75
2022/05/02 00:22:01;;;;;;;7.75;6.35;;;6.70;99.90;;;;;;5062654;28;20037;-76
2022/05/02 00:24:27;;;;;;;7.07;6.00;;;6.40;99.90;;;;;;5045261;28;20479;-75
2022/05/02 00:26:53;;;;;;;9.23;6.65;;;6.50;99.90;;;;;;5047736;28;20072;-75
2022/05/02 00:29:19;;;;;;;8.20;6.00;;;6.60;99.90;;;;;;5080145;28;20087;-75
2022/05/02 00:31:47;;;;;;;7.25;6.05;;;6.30;99.90;;;;;;5030731;28;20049;-75
2022/05/02 00:34:13;;;;;;;6.90;6.00;;;6.20;99.90;;;;;;5044403;28;20480;-75
2022/05/02 00:36:39;;;;;;;8.48;6.43;;;6.20;99.90;;;;;;5047222;28;20056;-77
2022/05/02 00:39:06;;;;;;;9.25;7.10;;;6.20;99.90;;;;;;5045681;28;20536;-71
2022/05/02 00:41:31;;;;;;;7.53;6.10;;;6.40;99.90;;;;;;5050137;28;20095;-75
2022/05/02 00:43:57;;;;;;;8.02;6.45;;;6.10;99.90;;;;;;5033953;28;20049;-74
2022/05/02 00:46:26;;;;;;;9.88;6.82;;;6.10;99.90;;;;;;5048388;28;20040;-75
2022/05/02 00:48:53;;;;;;;8.43;5.97;;;6.00;99.90;;;;;;5050196;28;20049;-75
2022/05/02 00:51:19;;;;;;;8.02;6.50;;;6.70;99.90;;;;;;5032195;28;20094;-75
2022/05/02 00:53:47;;;;;;;8.57;6.68;;;6.10;99.90;;;;;;5049454;28;20087;-75
2022/05/02 00:56:16;;;;;;;7.95;6.75;;;6.00;99.90;;;;;;5050110;28;20099;-75
2022/05/02 00:58:42;;;;;;;8.15;6.78;;;5.90;99.90;;;;;;5042998;28;20127;-75
2022/05/02 01:01:08;;;;;;;8.63;6.57;;;5.90;99.90;;;;;;5033795;28;20041;-75
2022/05/02 01:03:35;;;;;;;8.25;6.68;;;6.00;99.90;;;;;;5050143;28;20055;-75
2022/05/02 01:08:46;;;;;;;8.27;6.47;;;6.70;99.90;;;;;;5049711;28;20052;-75
2022/05/02 01:11:12;;;;;;;8.75;6.30;;;5.80;99.90;;;;;;5066917;28;20059;-75
2022/05/02 01:13:44;;;;;;;8.10;6.80;;;5.80;99.90;;;;;;5034729;28;20057;-75
2022/05/02 01:16:14;;;;;;;8.45;6.25;;;6.50;99.90;;;;;;5048214;28;20048;-75
2022/05/02 01:18:44;;;;;;;7.43;6.40;;;5.70;99.90;;;;;;5032717;28;20064;-75
2022/05/02 01:21:14;;;;;;;7.32;6.10;;;5.70;99.90;;;;;;5032388;28;20070;-75
2022/05/02 01:23:41;;;;;;;12.82;6.88;;;5.70;99.90;;;;;;5049285;28;20109;-76
2022/05/02 01:26:07;;;;;;;7.57;6.00;;;5.60;99.90;;;;;;5041877;28;20505;-75
2022/05/02 01:29:00;;;;;;;8.48;6.88;;;5.90;99.90;;;;;;5050210;28;20136;-74
2022/05/02 01:31:26;;;;;;;7.50;6.38;;;5.80;99.90;;;;;;5049081;28;20455;-75
2022/05/02 01:33:53;;;;;;;8.63;6.68;;;5.90;99.90;;;;;;5065974;28;20037;-74
2022/05/02 01:36:20;;;;;;;8.82;6.25;;;5.50;99.90;;;;;;5049835;28;20057;-74
2022/05/02 01:38:46;;;;;;;6.57;5.82;;;5.50;99.90;;;;;;5041395;28;20498;-74
2022/05/02 01:41:12;;;;;;;8.48;6.47;;;5.50;99.90;;;;;;5048784;28;20071;-74
2022/05/02 01:43:39;;;;;;;8.70;6.20;;;5.50;99.90;;;;;;5048881;28;20107;-74
2022/05/02 01:46:07;;;;;;;7.53;5.95;;;5.40;99.90;;;;;;5049229;28;20076;-74
2022/05/02 01:48:32;;;;;;;7.78;6.97;;;5.40;99.90;;;;;;5009601;28;20053;-74
2022/05/02 01:50:58;;;;;;;7.13;6.10;;;5.40;99.90;;;;;;5032638;28;20561;-74
2022/05/02 01:53:26;;;;;;;8.65;6.50;;;6.20;99.90;;;;;;5031858;28;20065;-74
2022/05/02 01:55:52;;;;;;;8.82;6.10;;;5.50;99.90;;;;;;5048730;28;20110;-74
2022/05/02 01:58:18;;;;;;;7.00;5.78;;;5.30;99.90;;;;;;5048586;28;20088;-75
2022/05/02 02:00:44;;;;;;;8.13;6.60;;;5.40;99.90;;;;;;5049000;28;20041;-75
2022/05/02 02:03:10;;;;;;;8.63;5.97;;;5.30;99.90;;;;;;5048045;28;20148;-75
2022/05/02 02:05:48;;;;;;;7.50;6.15;;;5.30;99.90;;;;;;5049567;28;20094;-75
2022/05/02 02:08:23;;;;;;;7.00;5.90;;;5.30;99.90;;;;;;5033722;28;20053;-75
2022/05/02 02:10:51;;;;;;;6.97;5.63;;;5.30;99.90;;;;;;5049880;28;20056;-75
2022/05/02 02:13:17;;;;;;;7.45;6.00;;;6.00;99.90;;;;;;5040935;28;20049;-75
2022/05/02 02:15:46;;;;;;;7.15;5.93;;;5.20;99.90;;;;;;5048145;28;20083;-75
2022/05/02 02:18:12;;;;;;;7.30;5.93;;;5.20;99.90;;;;;;5041260;28;20115;-75
2022/05/02 02:20:41;;;;;;;8.48;5.75;;;5.30;99.90;;;;;;5049598;28;20127;-75
2022/05/02 02:23:07;;;;;;;9.25;6.25;;;5.20;99.90;;;;;;5040063;28;20060;-74
2022/05/02 02:25:32;;;;;;;7.88;5.70;;;5.10;99.90;;;;;;5048192;28;20095;-74
2022/05/02 02:28:00;;;;;;;7.47;6.15;;;5.10;99.90;;;;;;5049203;28;20076;-75
2022/05/02 02:30:27;;;;;;;7.28;6.00;;;5.10;99.90;;;;;;5048922;28;20107;-74
2022/05/02 02:32:52;;;;;;;8.40;5.85;;;5.50;99.90;;;;;;5047863;28;20055;-75
2022/05/02 02:35:20;;;;;;;7.35;6.20;;;5.70;99.90;;;;;;5031908;28;20052;-75
2022/05/02 02:37:47;;;;;;;8.27;6.10;;;5.10;99.90;;;;;;5047971;28;20048;-74
2022/05/02 02:40:13;;;;;;;7.50;6.13;;;6.50;99.90;;;;;;5008556;28;20524;-75
2022/05/02 02:42:39;;;;;;;9.55;6.13;;;5.00;99.90;;;;;;5048682;28;20530;-75
2022/05/02 02:45:06;;;;;;;8.05;6.32;;;5.10;99.90;;;;;;5048271;28;20135;-75
2022/05/02 02:47:32;;;;;;;8.55;6.32;;;5.00;99.90;;;;;;5031285;28;20083;-75
2022/05/02 02:49:58;;;;;;;7.90;5.95;;;6.10;99.90;;;;;;5029890;28;20052;-75
2022/05/02 02:52:23;;;;;;;8.57;6.20;;;5.80;99.90;;;;;;5048152;28;20087;-75
2022/05/02 02:54:49;;;;;;;8.95;6.15;;;5.00;99.90;;;;;;5030894;28;20055;-75
2022/05/02 02:57:15;;;;;;;8.18;6.25;;;6.10;99.90;;;;;;5031895;28;20113;-75
2022/05/02 02:59:41;;;;;;;8.05;6.22;;;4.90;99.90;;;;;;5048162;28;20049;-75
2022/05/02 03:02:07;;;;;;;9.07;6.70;;;6.10;99.90;;;;;;5048205;28;20451;-75
2022/05/02 03:07:18;;;;;;;8.68;6.50;;;5.10;99.90;;;;;;5048203;28;20477;-74
2022/05/02 03:09:44;;;;;;;7.80;6.35;;;4.90;99.90;;;;;;5064072;28;20127;-74
2022/05/02 03:12:10;;;;;;;7.75;6.20;;;4.80;99.90;;;;;;5031211;28;20051;-74
2022/05/02 03:14:35;;;;;;;9.18;6.93;;;4.90;99.90;;;;;;5047761;28;20045;-74
2022/05/02 03:17:01;;;;;;;9.02;6.25;;;4.80;99.90;;;;;;5048056;28;20140;-74
2022/05/02 03:19:27;;;;;;;7.95;6.60;;;4.80;99.90;;;;;;5030027;28;20057;-74
2022/05/02 03:21:53;;;;;;;8.95;7.13;;;4.80;99.90;;;;;;5064477;28;20486;-74
2022/05/02 03:24:19;;;;;;;8.15;6.80;;;4.90;99.90;;;;;;5046868;28;20486;-75
2022/05/02 03:26:44;;;;;;;8.23;6.75;;;5.50;99.90;;;;;;5047481;28;20095;-74
2022/05/02 03:29:10;;;;;;;9.75;6.78;;;5.00;99.90;;;;;;5047514;28;20098;-74
2022/05/02 03:31:36;;;;;;;9.48;7.25;;;4.70;99.90;;;;;;5047820;28;20052;-74
2022/05/02 03:34:01;;;;;;;8.50;6.82;;;4.70;99.90;;;;;;5064892;28;20514;-75
2022/05/02 03:36:27;;;;;;;8.75;7.07;;;4.70;99.90;;;;;;5046905;28;20063;-75
2022/05/02 03:38:53;;;;;;;8.55;6.82;;;6.00;99.90;;;;;;5030071;28;20121;-75
2022/05/02 03:41:19;;;;;;;8.43;6.82;;;4.70;99.90;;;;;;5046948;28;20079;-74
2022/05/02 03:43:44;;;;;;;7.57;6.20;;;4.70;99.90;;;;;;5047440;28;20055;-74
2022/05/02 03:46:10;;;;;;;10.35;7.38;;;4.70;99.90;;;;;;5045604;28;20053;-73
2022/05/02 03:48:36;;;;;;;9.30;7.43;;;4.70;99.90;;;;;;5063313;28;20079;-74
2022/05/02 03:51:02;;;;;;;8.35;6.70;;;5.70;99.90;;;;;;5047905;28;20124;-74
2022/05/02 03:53:28;;;;;;;7.75;6.70;;;4.60;99.90;;;;;;5046030;28;20049;-74
2022/05/02 03:55:53;;;;;;;9.90;7.18;;;4.60;99.90;;;;;;5062148;28;20037;-75
2022/05/02 03:58:19;;;;;;;8.63;6.82;;;4.70;99.90;;;;;;5045834;28;20049;-74
2022/05/02 04:00:46;;;;;;;8.77;6.93;;;5.20;99.90;;;;;;5047368;28;20054;-74
2022/05/02 04:03:12;;;;;;;7.57;6.47;;;4.60;99.90;;;;;;5039187;28;20091;-74
2022/05/02 04:05:37;;;;;;;9.05;6.88;;;4.60;99.90;;;;;;5047265;28;20056;-74
2022/05/02 04:08:03;;;;;;;10.63;7.53;;;4.60;99.90;;;;;;5046224;28;20116;-75
2022/05/02 04:10:29;;;;;;;8.27;6.97;;;4.60;99.90;;;;;;5031262;28;20048;-74
2022/05/02 04:12:55;;;;;;;10.70;6.88;;;4.90;99.90;;;;;;5023166;28;20048;-74
2022/05/02 04:15:20;;;;;;;8.80;7.10;;;5.00;99.90;;;;;;5046752;28;20041;-75
2022/05/02 04:17:46;;;;;;;9.55;7.28;;;4.50;99.90;;;;;;5031022;28;20059;-75
2022/05/02 04:20:12;;;;;;;11.82;7.97;;;4.50;99.90;;;;;;5048206;28;20053;-74
2022/05/02 04:22:40;;;;;;;9.60;7.47;;;4.50;99.90;;;;;;5030736;28;20049;-74
2022/05/02 04:25:06;;;;;;;10.18;7.30;;;4.60;99.90;;;;;;5048249;28;20056;-75
2022/05/02 04:27:31;;;;;;;8.98;7.72;;;4.50;99.90;;;;;;5047364;28;20128;-75
2022/05/02 04:29:57;;;;;;;9.38;7.72;;;4.50;99.90;;;;;;5047462;28;20127;-75
2022/05/02 04:32:23;;;;;;;10.02;7.70;;;4.70;99.90;;;;;;5029873;28;20040;-75
2022/05/02 04:34:49;;;;;;;10.85;8.10;;;4.70;99.90;;;;;;5082097;28;20053;-74
2022/05/02 04:37:14;;;;;;;9.23;7.95;;;5.90;99.90;;;;;;5047708;28;20045;-75
2022/05/02 04:39:40;;;;;;;9.27;7.47;;;4.90;99.90;;;;;;5031525;28;20049;-75
2022/05/02 04:42:06;;;;;;;9.50;7.93;;;4.60;99.90;;;;;;5030328;28;20056;-75
2022/05/02 04:44:34;;;;;;;10.00;8.23;;;4.60;99.90;;;;;;5030131;28;20099;-75
2022/05/02 04:47:00;;;;;;;11.27;8.48;;;4.60;99.90;;;;;;5064476;28;20052;-75
2022/05/02 04:49:26;;;;;;;10.57;8.38;;;4.70;99.90;;;;;;5044617;28;20067;-76
2022/05/02 04:51:51;;;;;;;10.65;7.88;;;4.70;99.90;;;;;;5030777;28;20049;-75
2022/05/02 04:54:17;;;;;;;11.95;8.90;;;6.00;99.90;;;;;;5047710;28;20087;-75
2022/05/02 04:56:43;;;;;;;9.38;7.93;;;4.80;99.90;;;;;;5030683;28;20049;-75
2022/05/02 04:59:08;;;;;;;10.25;8.63;;;4.80;99.90;;;;;;5029624;28;20052;-75
2022/05/02 05:01:34;;;;;;;11.52;8.57;;;5.60;99.90;;;;;;5029814;28;20060;-75
2022/05/02 05:04:00;;;;;;;11.95;8.98;;;4.90;99.90;;;;;;5030668;28;20049;-76
2022/05/02 05:06:25;;;;;;;12.15;9.18;;;4.90;99.90;;;;;;5045612;28;20053;-76
2022/05/02 05:08:51;;;;;;;11.70;9.25;;;4.90;99.90;;;;;;5047152;28;20135;-76
2022/05/02 05:11:49;;;;;;;12.20;10.02;;;5.20;99.90;;;;;;5045752;28;20037;-76
2022/05/02 05:17:18;;;;;;;11.57;8.95;;;5.00;99.90;;;;;;5080896;28;20142;-76
2022/05/02 05:20:00;;;;;;;11.15;8.48;;;5.10;99.90;;;;;;5028839;28;20069;-76
2022/05/02 05:23:14;;;;;;;11.52;9.57;;;5.20;99.90;;;;;;5029607;28;20509;-75
2022/05/02 05:26:02;;;;;;;12.88;8.98;;;5.20;99.90;;;;;;5053081;28;20418;-76
2022/05/02 05:28:31;;;;;;;12.52;9.57;;;6.20;99.90;;;;;;5047384;28;20144;-76
2022/05/02 05:31:23;;;;;;;12.32;9.82;;;5.30;99.90;;;;;;5032757;28;20053;-76
2022/05/02 05:34:07;;;;;;;13.45;10.55;;;5.40;99.90;;;;;;5049321;28;20045;-77
2022/05/02 05:36:59;;;;;;;12.57;9.30;;;5.40;99.90;;;;;;5049882;28;20056;-75
2022/05/02 05:39:49;;;;;;;14.07;10.73;;;5.50;99.90;;;;;;5048142;28;20102;-75
2022/05/02 05:42:39;;;;;;;11.52;10.15;;;5.50;99.90;;;;;;5049122;28;20593;-75
2022/05/02 05:45:10;;;;;;;14.30;10.98;;;5.60;99.90;;;;;;5083458;28;20049;-74
2022/05/02 05:47:42;;;;;;;11.40;9.73;;;5.70;99.90;;;;;;5049239;28;20080;-75
2022/05/02 05:50:24;;;;;;;12.65;10.10;;;5.70;99.90;;;;;;5033738;28;20076;-75
2022/05/02 05:53:19;;;;;;;14.65;9.27;;;5.80;99.90;;;;;;5065842;28;20129;-75
2022/05/02 05:56:03;;;;;;;11.52;9.32;;;5.90;99.90;;;;;;5033320;28;20049;-75
2022/05/02 05:59:03;;;;;;;11.25;8.73;;;6.00;99.90;;;;;;5083296;28;20072;-75
2022/05/02 06:01:50;;;;;;;10.55;8.82;;;6.10;99.90;;;;;;5081760;28;20079;-75
2022/05/02 06:04:16;;;;;;;12.35;9.20;;;6.20;99.90;;;;;;5042754;28;20044;-75
2022/05/02 06:06:42;;;;;;;11.55;9.55;;;6.30;99.90;;;;;;5040973;28;20060;-75
2022/05/02 06:09:10;;;;;;;9.57;8.20;;;7.00;99.90;;;;;;5049449;28;20057;-75
2022/05/02 06:11:39;;;;;;;10.20;8.48;;;6.50;99.90;;;;;;5047817;28;20051;-75
2022/05/02 06:14:06;;;;;;;10.48;8.23;;;6.80;99.90;;;;;;5042647;28;20044;-75
2022/05/02 06:19:25;;;;;;;11.27;8.57;;;6.90;99.90;;;;;;5081689;28;20064;-76
2022/05/02 06:21:53;;;;;;;10.05;7.95;;;7.00;99.90;;;;;;5048166;28;20045;-75
2022/05/02 06:24:19;;;;;;;10.35;8.38;;;7.10;99.90;;;;;;5063359;28;20134;-75
2022/05/02 06:26:49;;;;;;;11.35;8.60;;;7.30;99.90;;;;;;5048831;28;20048;-75
2022/05/02 06:29:18;;;;;;;9.13;8.18;;;7.50;99.90;;;;;;5049011;28;20052;-76
2022/05/02 06:31:46;;;;;;;9.63;7.93;;;7.70;99.90;;;;;;5022629;28;20056;-76
2022/05/02 06:34:23;;;;;;;8.25;7.25;;;8.50;99.90;;;;;;5048550;28;20426;-75
2022/05/02 06:36:56;;;;;;;9.10;8.13;;;8.00;99.90;;;;;;5065922;28;20041;-75
2022/05/02 06:39:44;;;;;;;11.48;7.80;;;8.20;99.90;;;;;;5048804;28;20131;-76
2022/05/02 06:42:28;;;;;;;8.43;7.45;;;8.40;99.90;;;;;;5031592;28;20049;-75
2022/05/02 06:45:08;;;;;;;9.43;7.70;;;8.70;99.90;;;;;;5064922;28;20049;-75
2022/05/02 06:48:01;;;;;;;8.65;7.82;;;8.80;99.90;;;;;;5065012;28;20048;-76
2022/05/02 06:50:31;;;;;;;11.43;7.28;;;9.00;99.90;;;;;;5041272;28;20492;-76
2022/05/02 06:53:25;;;;;;;8.95;7.38;;;9.20;99.90;;;;;;5048408;28;20052;-76
2022/05/02 06:56:14;;;;;;;8.93;7.00;;;9.40;99.90;;;;;;5047502;28;20086;-75
2022/05/02 06:59:06;;;;;;;7.90;6.88;;;9.60;99.90;;;;;;5048378;28;20045;-75
2022/05/02 07:02:09;;;;;;;7.65;6.72;;;9.80;99.90;;;;;;5030452;28;20045;-75
2022/05/02 07:04:53;;;;;;;8.40;6.50;;;10.00;99.90;;;;;;5039557;28;20052;-76
2022/05/02 07:07:51;;;;;;;9.48;6.68;;;10.20;99.90;;;;;;5048173;28;20049;-76
2022/05/02 07:10:32;;;;;;;7.72;6.32;;;10.50;99.90;;;;;;5031308;28;20106;-76
2022/05/02 07:13:36;;;;;;;7.65;5.80;;;10.70;99.90;;;;;;5047889;28;20072;-75
2022/05/02 07:16:22;;;;;;;7.90;6.13;;;10.90;99.90;;;;;;5080543;28;20037;-76
2022/05/02 07:19:13;;;;;;;7.95;6.35;;;11.10;99.90;;;;;;5047258;28;20064;-76
2022/05/02 07:22:02;;;;;;;9.18;6.22;;;11.30;99.90;;;;;;5045937;28;20060;-76
2022/05/02 07:24:47;;;;;;;7.85;5.15;;;11.60;99.90;;;;;;5063553;28;20045;-75
2022/05/02 07:27:43;;;;;;;6.93;5.55;;;11.90;99.90;;;;;;5081844;28;20153;-76
2022/05/02 07:30:10;;;;;;;6.20;5.10;;;12.10;99.90;;;;;;5047264;28;20052;-75
2022/05/02 07:32:36;;;;;;;7.60;5.80;;;12.30;99.90;;;;;;5079380;28;20110;-74
2022/05/02 07:35:02;;;;;;;6.93;5.20;;;12.50;99.90;;;;;;5023125;28;20120;-75
2022/05/02 07:37:31;;;;;;;6.00;5.30;;;12.80;99.90;;;;;;5047056;28;20052;-75
2022/05/02 07:39:57;;;;;;;5.97;5.07;;;13.00;99.90;;;;;;5046533;28;20040;-76
2022/05/02 07:42:25;;;;;;;6.38;4.60;;;13.10;99.90;;;;;;5031030;28;20052;-76
2022/05/02 07:44:55;;;;;;;5.20;4.22;;;13.30;99.90;;;;;;5048218;28;20119;-75
2022/05/02 07:47:24;;;;;;;4.95;4.03;;;13.60;99.90;;;;;;5047478;28;20080;-75
2022/05/02 07:49:51;;;;;;;5.82;4.45;;;13.70;99.90;;;;;;5046593;28;20141;-75
2022/05/02 07:52:23;;;;;;;5.32;4.70;;;14.00;99.90;;;;;;5046191;28;20910;-75
2022/05/02 07:54:50;;;;;;;4.70;3.70;;;14.10;99.90;;;;;;5080312;28;20061;-76
2022/05/02 07:57:16;;;;;;;5.57;4.50;;;14.40;99.90;;;;;;5046828;28;20111;-76
2022/05/02 07:59:44;;;;;;;6.25;4.57;;;14.70;99.90;;;;;;5030521;28;20132;-75
2022/05/02 08:02:10;;;;;;;8.52;4.70;;;15.00;99.90;;;;;;5039954;28;20041;-75
2022/05/02 08:04:40;;;;;;;6.40;5.28;;;15.20;99.90;;;;;;5023974;28;20059;-75
2022/05/02 08:07:11;;;;;;;6.22;4.82;;;15.40;99.90;;;;;;5046336;28;20071;-75
2022/05/02 08:09:37;;;;;;;6.00;4.32;;;15.60;99.90;;;;;;5030715;28;20041;-75
2022/05/02 08:12:30;;;;;;;7.05;3.97;;;15.80;99.90;;;;;;5045975;28;20492;-75
2022/05/02 08:15:19;;;;;;;5.53;4.40;;;16.10;99.90;;;;;;5063174;28;20050;-75
2022/05/02 08:18:13;;;;;;;6.07;4.63;;;16.20;99.90;;;;;;5061243;28;20068;-76
2022/05/02 08:20:41;;;;;;;5.85;3.80;;;16.40;99.90;;;;;;5046328;28;20061;-76
2022/05/02 08:29:43;;;;;;;4.20;3.42;;;17.10;99.90;;;;;;5080242;28;20142;-76
2022/05/02 08:32:14;;;;;;;5.25;3.70;;;17.40;99.90;;;;;;5046999;28;20421;-75
2022/05/02 08:34:39;;;;;;;5.15;4.22;;;17.60;99.90;;;;;;5047001;28;20049;-75
2022/05/02 08:37:24;;;;;;;5.32;3.95;;;17.80;99.90;;;;;;5029226;28;20091;-75
2022/05/02 08:40:04;;;;;;;5.72;4.10;;;18.20;99.50;;;;;;5046722;28;20071;-75
2022/05/02 08:43:01;;;;;;;5.20;4.60;;;18.50;99.90;;;;;;5040169;28;20044;-76
2022/05/02 08:45:49;;;;;;;4.93;4.15;;;18.60;98.90;;;;;;5033208;28;20048;-76
2022/05/02 08:48:45;;;;;;;5.38;4.07;;;18.80;98.90;;;;;;5046551;28;20129;-76
2022/05/02 08:51:26;;;;;;;5.40;4.32;;;18.90;98.40;;;;;;5046341;28;20088;-76
2022/05/02 08:54:06;;;;;;;5.07;3.97;;;18.90;97.90;;;;;;5046781;28;20069;-75
2022/05/02 08:56:38;;;;;;;6.13;4.00;;;19.10;99.00;;;;;;5046437;28;20041;-75
2022/05/02 08:59:17;;;;;;;5.60;4.20;;;19.30;97.90;;;;;;5046382;28;20044;-77
2022/05/02 09:01:58;;;;;;;5.18;4.00;;;19.40;96.70;;;;;;5039604;28;20071;-76
2022/05/02 09:04:58;;;;;;;5.85;3.80;;;19.40;96.30;;;;;;5050478;28;20056;-75
2022/05/02 09:08:02;;;;;;;4.45;3.65;;;19.50;94.40;;;;;;5050250;28;20079;-75
2022/05/02 09:10:58;;;;;;;5.97;4.07;;;19.40;95.10;;;;;;5050901;28;20482;-75
2022/05/02 09:13:40;;;;;;;4.00;3.60;;;19.50;95.40;;;;;;5034265;28;20053;-76
2022/05/02 09:16:32;;;;;;;5.05;3.95;;;19.60;95.50;;;;;;5033475;28;20083;-75
2022/05/02 09:19:24;;;;;;;4.25;3.47;;;19.80;92.50;;;;;;5064907;28;20196;-76
2022/05/02 09:22:08;;;;;;;3.72;3.15;;;20.00;94.30;;;;;;5032726;28;20564;-75
2022/05/02 09:24:52;;;;;;;5.75;3.42;;;20.40;93.70;;;;;;5050096;28;20149;-75
2022/05/02 09:27:57;;;;;;;5.00;3.80;;;20.60;92.80;;;;;;5049254;28;20045;-75
2022/05/02 09:31:00;;;;;;;7.00;3.65;;;20.40;91.20;;;;;;5037748;28;20063;-76
2022/05/02 09:33:47;;;;;;;3.92;3.10;;;20.10;90.30;;;;;;5052615;28;20103;-77
2022/05/02 09:36:41;;;;;;;4.07;3.35;;;20.10;91.60;;;;;;5084391;28;20048;-76
2022/05/02 09:39:24;;;;;;;3.80;2.97;;;20.30;90.20;;;;;;5032982;28;20494;-76
2022/05/02 09:41:58;;;;;;;4.40;3.22;;;20.60;88.40;;;;;;5065605;28;20045;-75
2022/05/02 09:51:39;;;;;;;5.20;3.75;;;21.60;84.00;;;;;;5049416;28;20410;-76
2022/05/02 09:57:23;;;;;;;4.43;3.25;;;21.70;77.50;;;;;;5049451;28;20057;-76
2022/05/02 10:02:45;;;;;;;4.43;2.90;;;21.40;81.00;;;;;;5048981;28;20053;-76
2022/05/02 10:05:21;;;;;;;4.03;3.20;;;21.30;79.60;;;;;;5031768;28;20049;-75
2022/05/02 10:08:21;;;;;;;4.20;2.83;;;21.10;78.40;;;;;;5024673;28;20140;-76
2022/05/02 10:11:00;;;;;;;3.55;2.63;;;21.40;79.10;;;;;;5041276;28;20122;-75
2022/05/02 10:14:16;;;;;;;4.57;2.80;;;21.50;78.40;;;;;;5081998;28;20057;-76
2022/05/02 10:16:57;;;;;;;3.08;2.55;;;21.70;75.10;;;;;;5073050;28;20081;-75
2022/05/02 10:19:59;;;;;;;5.10;3.03;;;21.80;75.80;;;;;;5048272;28;20073;-76
2022/05/02 10:22:57;;;;;;;2.88;2.40;;;21.80;73.60;;;;;;5048604;28;20128;-76
2022/05/02 10:25:38;;;;;;;2.72;1.80;;;21.80;75.40;;;;;;5048904;28;20060;-76
2022/05/02 10:28:35;;;;;;;3.35;2.13;;;21.70;73.70;;;;;;5049290;28;20041;-75
2022/05/02 10:31:28;;;;;;;2.65;1.83;;;21.80;70.00;;;;;;5047295;28;20056;-75
2022/05/02 10:33:55;;;;;;;4.15;2.38;;;21.60;72.40;;;;;;5046972;28;20128;-75
2022/05/02 10:36:28;;;;;;;3.28;1.83;;;21.40;72.80;;;;;;5049204;28;20045;-75
2022/05/02 10:39:01;;;;;;;3.17;1.90;;;21.40;70.90;;;;;;5082054;28;20044;-75
2022/05/02 10:41:29;;;;;;;3.28;1.98;;;21.50;71.80;;;;;;5046036;28;20064;-76
2022/05/02 10:44:04;;;;;;;3.85;1.90;;;21.60;71.50;;;;;;5047535;28;20155;-74
2022/05/02 10:46:31;;;;;;;3.45;1.65;;;21.90;70.00;;;;;;5030551;28;20092;-75
2022/05/02 10:49:15;;;;;;;3.55;1.98;;;22.00;70.10;;;;;;5041314;28;20103;-75
2022/05/02 10:51:55;;;;;;;3.33;1.80;;;22.20;66.70;;;;;;5046232;28;20051;-78
2022/05/02 10:54:39;;;;;;;4.07;1.70;;;22.30;66.20;;;;;;5048523;28;20053;-76
2022/05/02 10:57:30;;;;;;;2.92;2.35;;;22.50;63.10;;;;;;5082219;28;20061;-76
2022/05/02 11:00:04;;;;;;;4.03;2.05;;;22.60;61.90;;;;;;5047249;28;20049;-75
2022/05/02 11:02:47;;;;;;;5.45;1.73;;;22.60;62.70;;;;;;5047055;28;20075;-75
2022/05/02 11:05:43;;;;;;;2.88;1.85;;;22.60;62.70;;;;;;5065416;28;20049;-75
2022/05/02 11:08:26;;;;;;;3.10;1.60;;;22.60;60.40;;;;;;5040276;28;20064;-75
2022/05/02 11:11:03;;;;;;;3.00;1.83;;;22.60;62.00;;;;;;5046734;28;20162;-75
2022/05/02 11:13:50;;;;;;;4.40;2.10;;;22.80;59.50;;;;;;5048487;28;20095;-75
2022/05/02 11:16:39;;;;;;;3.53;2.17;;;22.80;57.80;;;;;;5024259;28;20053;-75
2022/05/02 11:22:24;;;;;;;2.75;1.20;;;22.90;57.20;;;;;;5080789;28;20053;-76
2022/05/02 11:25:18;;;;;;;2.30;1.40;;;22.90;57.90;;;;;;5046517;28;20459;-76
2022/05/02 11:28:10;;;;;;;2.85;1.50;;;22.90;53.60;;;;;;5047242;28;20049;-76
2022/05/02 11:30:45;;;;;;;1.88;1.00;;;22.80;52.40;;;;;;5039308;28;20061;-75
2022/05/02 11:33:35;;;;;;;2.00;1.30;;;22.90;52.20;;;;;;5029578;28;20087;-76
2022/05/02 11:36:02;;;;;;;2.55;1.13;;;23.00;54.40;;;;;;5046241;28;20045;-76
2022/05/02 11:38:32;;;;;;;2.45;1.20;;;23.20;55.40;;;;;;5022400;28;20541;-75
2022/05/02 11:41:15;;;;;;;2.42;0.90;;;23.20;55.30;;;;;;5046853;28;20053;-76
2022/05/02 11:43:43;;;;;;;2.03;1.10;;;23.40;55.40;;;;;;5080162;28;20041;-76
2022/05/02 11:46:15;;;;;;;2.10;1.10;;;23.70;55.90;;;;;;5038833;28;20052;-76
2022/05/02 11:48:59;;;;;;;2.03;1.00;;;23.90;53.20;;;;;;5046989;28;20072;-77
2022/05/02 11:51:45;;;;;;;1.67;0.88;;;23.90;53.10;;;;;;5081241;28;20056;-76
2022/05/02 11:54:35;;;;;;;1.55;0.93;;;24.00;51.70;;;;;;5080204;28;20053;-76
2022/05/02 11:57:42;;;;;;;2.20;1.10;;;24.30;50.40;;;;;;5059231;28;20067;-76
2022/05/02 12:00:09;;;;;;;1.65;1.08;;;24.50;52.10;;;;;;5046640;28;20060;-76
2022/05/02 12:02:41;;;;;;;4.22;1.02;;;24.40;52.40;;;;;;5039954;28;20149;-76
2022/05/02 12:05:23;;;;;;;2.80;1.30;;;24.50;52.70;;;;;;5046106;28;20053;-76
2022/05/02 12:07:53;;;;;;;2.95;0.98;;;24.60;48.80;;;;;;5055454;28;20084;-76
2022/05/02 12:10:22;;;;;;;2.72;1.00;;;24.70;49.00;;;;;;5046737;28;20053;-75
2022/05/02 12:12:49;;;;;;;1.83;0.80;;;24.70;50.00;;;;;;5039459;28;20041;-77
2022/05/02 12:15:16;;;;;;;1.60;0.80;;;24.80;50.30;;;;;;5031127;28;20048;-75
2022/05/02 12:17:53;;;;;;;1.42;1.00;;;24.80;50.00;;;;;;5030111;28;20049;-76
2022/05/02 12:20:24;;;;;;;1.95;0.98;;;24.70;48.20;;;;;;5047140;28;20065;-76
2022/05/02 12:22:56;;;;;;;1.83;1.00;;;25.00;50.50;;;;;;5046334;28;20558;-75
2022/05/02 12:25:23;;;;;;;2.08;0.85;;;25.10;50.30;;;;;;5064129;28;20072;-75
2022/05/02 12:27:50;;;;;;;2.05;0.90;;;25.10;50.50;;;;;;5079129;28;20044;-76
2022/05/02 12:30:18;;;;;;;2.17;0.85;;;25.20;51.00;;;;;;5063579;28;20129;-76
2022/05/02 12:32:45;;;;;;;1.45;0.80;;;25.20;50.40;;;;;;5062983;28;20049;-76
2022/05/02 12:35:12;;;;;;;1.73;1.00;;;25.40;50.20;;;;;;5030005;28;20049;-76
2022/05/02 12:37:42;;;;;;;3.10;1.00;;;25.50;49.30;;;;;;5033353;28;20041;-76
2022/05/02 12:40:12;;;;;;;1.30;0.90;;;25.60;49.90;;;;;;5033901;28;20094;-76
2022/05/02 12:42:44;;;;;;;1.58;0.90;;;25.70;49.80;;;;;;5033481;28;20456;-75
2022/05/02 12:45:13;;;;;;;2.30;0.95;;;25.70;49.10;;;;;;5067693;28;20092;-76
2022/05/02 12:47:56;;;;;;;1.92;1.08;;;25.70;50.10;;;;;;5050303;28;20053;-76
2022/05/02 12:50:25;;;;;;;2.15;1.00;;;25.60;47.80;;;;;;5028020;28;20123;-76
2022/05/02 12:52:57;;;;;;;2.00;1.00;;;25.70;49.30;;;;;;5050566;28;20895;-76
2022/05/02 12:55:29;;;;;;;1.65;0.90;;;25.50;47.70;;;;;;5050584;28;20909;-76
2022/05/02 13:00:44;;;;;;;2.35;1.00;;;25.70;49.20;;;;;;5051985;28;20224;-75
2022/05/02 13:03:10;;;;;;;2.60;0.82;;;25.70;49.20;;;;;;5049823;28;20049;-76
2022/05/02 13:05:40;;;;;;;1.73;0.85;;;25.70;49.30;;;;;;5033936;28;20479;-76
2022/05/02 13:08:10;;;;;;;2.20;0.90;;;25.70;49.80;;;;;;5024284;28;20057;-76
2022/05/02 13:10:36;;;;;;;2.30;0.95;;;25.70;49.80;;;;;;5026657;28;20048;-76
2022/05/02 13:13:10;;;;;;;3.10;1.30;;;25.60;49.30;;;;;;5066969;28;20052;-76
2022/05/02 13:15:36;;;;;;;2.95;1.00;;;25.20;48.30;;;;;;5050673;28;20047;-76
2022/05/02 13:18:13;;;;;;;1.90;0.90;;;25.20;49.40;;;;;;5031915;28;20052;-76
2022/05/02 13:20:40;;;;;;;2.22;1.00;;;25.00;49.40;;;;;;5065100;28;20061;-75
2022/05/02 13:23:10;;;;;;;3.75;1.00;;;25.10;49.60;;;;;;5065724;28;20076;-76
2022/05/02 13:25:57;;;;;;;2.17;0.90;;;24.90;48.90;;;;;;5050711;28;20045;-76
2022/05/02 13:28:26;;;;;;;0.68;0.60;;;24.70;48.30;;;;;;5031844;28;20056;-76
2022/05/02 13:31:07;;;;;;;2.20;0.90;;;24.80;48.40;;;;;;5048189;28;20045;-76
2022/05/02 13:33:40;;;;;;;3.03;0.90;;;25.00;48.60;;;;;;5025781;28;20052;-76
2022/05/02 13:36:07;;;;;;;1.98;1.10;;;25.20;48.60;;;;;;5042662;28;20363;-76
2022/05/02 13:39:15;;;;;;;2.47;0.73;;;25.40;48.50;;;;;;5049900;28;20569;-76
2022/05/02 13:41:50;;;;;;;1.50;0.80;;;25.40;47.90;;;;;;5065273;28;20481;-76
2022/05/02 13:44:44;;;;;;;1.50;0.80;;;25.50;46.60;;;;;;5050292;28;20634;-77
2022/05/02 13:47:15;;;;;;;1.33;0.68;;;25.50;46.80;;;;;;5049750;28;20311;-76
2022/05/02 13:49:49;;;;;;;2.28;0.85;;;25.40;47.80;;;;;;5082628;28;20052;-76
2022/05/02 13:52:33;;;;;;;1.70;0.80;;;25.30;47.20;;;;;;5032344;28;20045;-76
2022/05/02 13:55:10;;;;;;;1.35;0.60;;;25.40;49.00;;;;;;5031665;28;20053;-76
2022/05/02 13:57:44;;;;;;;3.03;0.88;;;25.40;49.40;;;;;;5042571;28;20097;-76
2022/05/02 14:02:55;;;;;;;2.30;1.10;;;25.30;49.80;;;;;;5082549;28;20409;-76
2022/05/02 14:05:31;;;;;;;2.30;1.23;;;25.30;50.40;;;;;;5049847;28;20045;-76